RJFK

Kagoshima Airport

Kagoshima, Japan
TAF RJFK 221106Z 2212/2318 34006KT 9999 FEW030
Issued Valid From Valid To
Jan-22 @ 11:06 UTC
(6 hours ago)
Jan-22 @ 12:00 UTC
(5 hours ago)
Jan-23 @ 18:00 UTC
(-1 days ago)
Jan-22 @ 12:00 to Jan-23 @ 18:00
TAF RJFK 221106Z 2212/2318 34006KT 9999 FEW030
Wind Visibility Clouds
340° at 6 knots 10,000+ meters
  • Few at 3,000' AGL
TAF RJFK 221106Z 2212/2318 34006KT 9999 FEW030
Issued Jan-22 @ 11:06 UTC
(6 hours ago)
Valid From Jan-22 @ 12:00 UTC
(5 hours ago)
Valid To Jan-23 @ 18:00 UTC
(-1 days ago)
Jan-22 @ 12:00 - Jan-23 @ 18:00
Wind Visibility
340° at 6 knots 10,000+ meters
Clouds
  • Few at 3,000' AGL